createdAt,value
2023-04-16T00:00:32.580Z,100.00
2023-04-16T00:03:04.580Z,100.00
2023-04-16T00:05:35.937Z,100.00
2023-04-16T00:08:06.145Z,100.00
2023-04-16T00:10:37.392Z,100.00
2023-04-16T00:13:07.397Z,100.00
2023-04-16T00:15:37.932Z,100.00
2023-04-16T00:18:09.469Z,100.00
2023-04-16T00:20:39.744Z,100.00
2023-04-16T00:23:09.925Z,100.00
2023-04-16T00:25:40.634Z,100.00
2023-04-16T00:28:11.385Z,100.00
2023-04-16T00:30:41.394Z,100.00
2023-04-16T00:33:12.988Z,100.00
2023-04-16T00:35:43.581Z,100.00
2023-04-16T00:38:14.172Z,100.00
2023-04-16T00:40:43.905Z,100.00
2023-04-16T00:43:13.466Z,100.00
2023-04-16T00:45:43.284Z,100.00
2023-04-16T00:48:15.764Z,100.00
2023-04-16T00:50:46.082Z,100.00
2023-04-16T00:53:16.366Z,100.00
2023-04-16T00:55:46.685Z,100.00
2023-04-16T00:58:18.116Z,100.00
2023-04-16T01:00:47.791Z,98.69
2023-04-16T01:03:20.301Z,100.00
2023-04-16T01:05:51.310Z,100.00
2023-04-16T01:08:23.929Z,100.00
2023-04-16T01:10:54.432Z,100.00
2023-04-16T01:13:25.147Z,100.00
2023-04-16T01:15:59.785Z,100.00
2023-04-16T01:18:36.250Z,100.00
2023-04-16T01:21:09.284Z,100.00
2023-04-16T01:23:40.469Z,100.00
2023-04-16T01:26:10.596Z,100.00
2023-04-16T01:28:43.823Z,100.00
2023-04-16T01:31:13.832Z,100.00
2023-04-16T01:33:44.304Z,100.00
2023-04-16T01:36:17.032Z,100.00
2023-04-16T01:38:48.462Z,100.00
2023-04-16T01:41:18.064Z,100.00
2023-04-16T01:43:48.633Z,98.96
2023-04-16T01:46:23.037Z,100.00
2023-04-16T01:49:01.485Z,100.00
2023-04-16T01:51:33.499Z,100.00
2023-04-16T01:54:04.068Z,100.00
2023-04-16T01:56:35.110Z,100.00
2023-04-16T01:59:07.892Z,100.00
2023-04-16T02:01:39.604Z,100.00
2023-04-16T02:04:12.304Z,100.00
2023-04-16T02:06:46.550Z,100.00
2023-04-16T02:09:23.021Z,100.00
2023-04-16T02:11:53.612Z,100.00
2023-04-16T02:14:26.039Z,100.00
2023-04-16T02:16:56.688Z,99.35
2023-04-16T02:19:27.611Z,100.00
2023-04-16T02:22:01.985Z,100.00
2023-04-16T02:24:32.480Z,100.00
2023-04-16T02:27:03.448Z,99.95
2023-04-16T02:29:33.930Z,100.00
2023-04-16T02:32:04.288Z,100.00
2023-04-16T02:34:35.710Z,100.00
2023-04-16T02:37:06.811Z,100.00
2023-04-16T02:39:36.634Z,100.00
2023-04-16T02:42:07.234Z,100.00
2023-04-16T02:44:37.307Z,99.07
2023-04-16T02:47:08.257Z,100.00
2023-04-16T02:49:38.789Z,100.00
2023-04-16T02:52:10.801Z,100.00
2023-04-16T02:54:41.912Z,100.00
2023-04-16T02:57:11.711Z,100.00
2023-04-16T02:59:42.065Z,100.00
2023-04-16T03:02:12.653Z,100.00
2023-04-16T03:04:42.601Z,100.00
2023-04-16T03:07:14.700Z,99.04
2023-04-16T03:09:44.835Z,100.00
2023-04-16T03:12:15.147Z,99.22
2023-04-16T03:14:45.566Z,99.53
2023-04-16T03:17:16.219Z,100.00
2023-04-16T03:19:45.870Z,100.00
2023-04-16T03:22:17.174Z,100.00
2023-04-16T03:24:47.143Z,100.00
2023-04-16T03:27:17.673Z,100.00
2023-04-16T03:29:49.014Z,100.00
2023-04-16T03:32:19.271Z,100.00
2023-04-16T03:34:50.045Z,100.00
2023-04-16T03:37:24.432Z,100.00
2023-04-16T03:39:55.336Z,100.00
2023-04-16T03:42:26.263Z,99.81
2023-04-16T03:44:56.727Z,100.00
2023-04-16T03:47:26.585Z,100.00
2023-04-16T03:49:57.028Z,100.00
2023-04-16T03:52:29.506Z,99.14
2023-04-16T03:54:59.994Z,100.00
2023-04-16T03:57:29.915Z,100.00
2023-04-16T03:59:59.877Z,100.00
2023-04-16T04:02:30.056Z,100.00
2023-04-16T04:05:00.213Z,100.00
2023-04-16T04:07:32.110Z,100.00
2023-04-16T04:10:02.140Z,100.00
2023-04-16T04:12:32.196Z,100.00
2023-04-16T04:15:02.056Z,99.03
2023-04-16T04:17:32.386Z,100.00
2023-04-16T04:20:02.802Z,100.00
2023-04-16T04:22:34.663Z,100.00
2023-04-16T04:25:04.839Z,100.00
2023-04-16T04:27:35.658Z,100.00
2023-04-16T04:30:06.485Z,100.00
2023-04-16T04:32:36.358Z,100.00
2023-04-16T04:35:08.463Z,100.00
2023-04-16T04:37:40.225Z,100.00
2023-04-16T04:40:11.667Z,99.90
2023-04-16T04:42:42.110Z,100.00
2023-04-16T04:45:13.456Z,100.00
2023-04-16T04:47:43.116Z,99.88
2023-04-16T04:50:13.988Z,100.00
2023-04-16T04:52:46.200Z,100.00
2023-04-16T04:55:17.352Z,100.00
2023-04-16T04:57:47.279Z,99.67
2023-04-16T05:00:19.593Z,100.00
2023-04-16T05:02:50.687Z,100.00
2023-04-16T05:05:22.486Z,100.00
2023-04-16T05:07:54.663Z,100.00
2023-04-16T05:10:25.389Z,100.00
2023-04-16T05:12:56.203Z,100.00
2023-04-16T05:15:26.407Z,100.00
2023-04-16T05:17:57.241Z,100.00
2023-04-16T05:20:28.639Z,100.00
2023-04-16T05:23:00.613Z,100.00
2023-04-16T05:25:30.449Z,100.00
2023-04-16T05:28:01.084Z,100.00
2023-04-16T05:30:30.916Z,100.00
2023-04-16T05:33:01.036Z,100.00
2023-04-16T05:35:31.917Z,100.00
2023-04-16T05:38:04.783Z,99.93
2023-04-16T05:40:34.716Z,100.00
2023-04-16T05:43:05.051Z,100.00
2023-04-16T05:45:39.864Z,100.00
2023-04-16T05:48:10.741Z,100.00
2023-04-16T05:50:41.259Z,100.00
2023-04-16T05:53:14.297Z,100.00
2023-04-16T05:55:44.940Z,100.00
2023-04-16T05:58:16.119Z,100.00
2023-04-16T06:00:46.671Z,100.00
2023-04-16T06:03:16.937Z,100.00
2023-04-16T06:05:47.953Z,100.00
2023-04-16T06:08:20.136Z,100.00
2023-04-16T06:10:51.778Z,100.00
2023-04-16T06:13:21.956Z,100.00
2023-04-16T06:15:53.473Z,100.00
2023-04-16T06:18:24.516Z,100.00
2023-04-16T06:20:55.231Z,99.97
2023-04-16T06:23:27.754Z,100.00
2023-04-16T06:25:57.961Z,100.00
2023-04-16T06:28:28.230Z,100.00
2023-04-16T06:30:58.130Z,100.00
2023-04-16T06:33:28.508Z,100.00
2023-04-16T06:35:58.319Z,100.00
2023-04-16T06:38:30.010Z,100.00
2023-04-16T06:41:00.350Z,100.00
2023-04-16T06:43:31.957Z,100.00
2023-04-16T06:46:02.225Z,100.00
2023-04-16T06:48:32.198Z,100.00
2023-04-16T06:51:03.007Z,100.00
2023-04-16T06:53:35.912Z,100.00
2023-04-16T06:56:07.720Z,100.00
2023-04-16T06:58:38.428Z,100.00
2023-04-16T07:01:08.872Z,100.00
2023-04-16T07:03:40.196Z,100.00
2023-04-16T07:06:10.693Z,98.97
2023-04-16T07:08:42.872Z,100.00
2023-04-16T07:11:12.836Z,100.00
2023-04-16T07:13:42.894Z,100.00
2023-04-16T07:16:13.439Z,100.00
2023-04-16T07:18:44.119Z,100.00
2023-04-16T07:21:14.104Z,97.55
2023-04-16T07:23:45.946Z,95.19
2023-04-16T07:26:16.259Z,99.98
2023-04-16T07:28:46.651Z,100.00
2023-04-16T07:31:16.468Z,98.46
2023-04-16T07:33:46.324Z,100.00
2023-04-16T07:36:16.694Z,100.00
2023-04-16T07:38:48.210Z,99.14
2023-04-16T07:41:18.414Z,100.00
2023-04-16T07:43:47.862Z,100.00
2023-04-16T07:46:17.979Z,100.00
2023-04-16T07:48:48.006Z,100.00
2023-04-16T07:51:18.128Z,100.00
2023-04-16T07:53:52.032Z,100.00
2023-04-16T07:56:23.071Z,100.00
2023-04-16T07:59:20.922Z,100.00
2023-04-16T08:01:55.231Z,100.00
2023-04-16T08:04:26.625Z,99.93
2023-04-16T08:06:57.071Z,99.39
2023-04-16T08:09:30.425Z,99.92
2023-04-16T08:12:01.592Z,97.69
2023-04-16T08:14:31.498Z,98.90
2023-04-16T08:17:02.576Z,100.00
2023-04-16T08:19:33.174Z,100.00
2023-04-16T08:22:02.778Z,98.36
2023-04-16T08:24:34.913Z,97.59
2023-04-16T08:27:17.749Z,98.07
2023-04-16T08:29:49.980Z,96.25
2023-04-16T08:32:20.885Z,98.86
2023-04-16T08:34:51.749Z,98.14
2023-04-16T08:37:21.844Z,96.47
2023-04-16T08:39:54.294Z,98.10
2023-04-16T08:42:30.717Z,99.37
2023-04-16T08:45:09.526Z,93.95
2023-04-16T08:47:39.208Z,96.44
2023-04-16T08:50:12.208Z,97.17
2023-04-16T08:52:47.775Z,91.60
2023-04-16T08:55:19.823Z,94.70
2023-04-16T08:57:53.696Z,93.71
2023-04-16T09:00:24.390Z,93.34
2023-04-16T09:02:54.614Z,90.61
2023-04-16T09:05:25.965Z,94.88
2023-04-16T09:07:56.581Z,92.51
2023-04-16T09:10:29.951Z,94.78
2023-04-16T09:12:59.788Z,96.18
2023-04-16T09:15:32.018Z,97.96
2023-04-16T09:18:02.985Z,94.78
2023-04-16T09:20:32.966Z,93.81
2023-04-16T09:23:03.189Z,93.39
2023-04-16T09:25:37.540Z,92.16
2023-04-16T09:28:08.063Z,85.75
2023-04-16T09:30:38.009Z,89.57
2023-04-16T09:33:23.289Z,94.84
2023-04-16T09:35:54.534Z,90.78
2023-04-16T09:38:26.776Z,89.75
2023-04-16T09:41:10.259Z,89.90
2023-04-16T09:43:40.873Z,89.26
2023-04-16T09:46:14.669Z,91.17
2023-04-16T09:48:48.334Z,88.07
2023-04-16T09:51:18.612Z,87.03
2023-04-16T09:53:49.101Z,89.52
2023-04-16T09:56:21.802Z,91.28
2023-04-16T09:58:52.282Z,88.43
2023-04-16T10:01:22.204Z,90.20
2023-04-16T10:03:52.696Z,89.98
2023-04-16T10:06:24.226Z,90.80
2023-04-16T10:08:57.295Z,91.19
2023-04-16T10:11:29.363Z,84.29
2023-04-16T10:13:59.266Z,84.90
2023-04-16T10:16:29.309Z,79.45
2023-04-16T10:18:59.915Z,80.95
2023-04-16T10:21:34.535Z,80.09
2023-04-16T10:24:05.802Z,84.57
2023-04-16T10:26:41.167Z,79.76
2023-04-16T10:29:11.912Z,84.12
2023-04-16T10:31:43.365Z,79.46
2023-04-16T10:34:14.132Z,73.63
2023-04-16T10:36:48.547Z,78.34
2023-04-16T10:39:23.342Z,72.65
2023-04-16T10:42:12.154Z,74.61
2023-04-16T10:44:45.275Z,77.39
2023-04-16T10:47:15.939Z,72.54
2023-04-16T10:49:46.850Z,71.31
2023-04-16T10:52:18.748Z,70.53
2023-04-16T10:54:50.227Z,70.60
2023-04-16T10:57:24.159Z,76.27
2023-04-16T10:59:56.969Z,71.08
2023-04-16T11:02:32.438Z,69.06
2023-04-16T11:05:04.935Z,72.40
2023-04-16T11:07:37.882Z,77.22
2023-04-16T11:10:09.249Z,76.35
2023-04-16T11:12:42.967Z,76.65
2023-04-16T11:15:19.409Z,76.10
2023-04-16T11:17:52.995Z,82.50
2023-04-16T11:20:26.259Z,76.65
2023-04-16T11:22:58.140Z,74.75
2023-04-16T11:25:30.335Z,74.62
2023-04-16T11:28:06.554Z,72.60
2023-04-16T11:30:38.664Z,72.07
2023-04-16T11:33:11.455Z,71.85
2023-04-16T11:35:43.644Z,70.41
2023-04-16T11:38:14.508Z,78.73
2023-04-16T11:40:48.485Z,77.75
2023-04-16T11:43:20.328Z,80.75
2023-04-16T11:45:59.906Z,72.73
2023-04-16T11:48:51.674Z,77.02
2023-04-16T11:51:24.253Z,77.64
2023-04-16T11:53:56.765Z,73.70
2023-04-16T11:56:31.255Z,72.79
2023-04-16T11:59:18.872Z,64.85
2023-04-16T12:01:51.291Z,67.96
2023-04-16T12:04:25.200Z,65.48
2023-04-16T12:07:13.274Z,69.83
2023-04-16T12:09:45.352Z,71.19
2023-04-16T12:12:31.869Z,66.91
2023-04-16T12:15:05.702Z,69.83
2023-04-16T12:17:36.926Z,73.06
2023-04-16T12:20:13.128Z,73.88
2023-04-16T12:22:50.227Z,73.84
2023-04-16T12:25:22.824Z,65.48
2023-04-16T12:27:56.002Z,64.49
2023-04-16T12:30:28.597Z,67.68
2023-04-16T12:33:17.460Z,70.26
2023-04-16T12:35:48.777Z,67.37
2023-04-16T12:38:31.252Z,74.90
2023-04-16T12:41:02.816Z,73.52
2023-04-16T12:43:33.737Z,70.68
2023-04-16T12:46:07.100Z,65.20
2023-04-16T12:48:38.170Z,70.41
2023-04-16T12:51:09.278Z,64.05
2023-04-16T12:53:41.616Z,62.38
2023-04-16T12:56:11.606Z,66.39
2023-04-16T12:58:43.108Z,65.88
2023-04-16T13:01:14.371Z,69.77
2023-04-16T13:03:45.840Z,66.55
2023-04-16T13:06:18.611Z,66.88
2023-04-16T13:08:50.011Z,62.37
2023-04-16T13:11:20.984Z,64.50
2023-04-16T13:13:51.159Z,65.30
2023-04-16T13:16:23.814Z,68.23
2023-04-16T13:18:54.949Z,67.75
2023-04-16T13:21:27.369Z,66.32
2023-04-16T13:23:57.306Z,72.81
2023-04-16T13:26:26.713Z,69.81
2023-04-16T13:28:57.454Z,67.61
2023-04-16T13:31:30.558Z,62.41
2023-04-16T13:34:02.055Z,68.16
2023-04-16T13:36:34.576Z,67.61
2023-04-16T13:39:11.510Z,65.93
2023-04-16T13:41:42.096Z,65.68
2023-04-16T13:44:13.338Z,66.20
2023-04-16T13:46:48.181Z,64.87
2023-04-16T13:49:20.087Z,65.77
2023-04-16T13:51:53.156Z,67.93
2023-04-16T13:54:23.593Z,65.52
2023-04-16T13:56:54.066Z,68.19
2023-04-16T13:59:24.314Z,69.28
2023-04-16T14:01:55.717Z,69.48
2023-04-16T14:04:29.208Z,67.17
2023-04-16T14:06:59.639Z,65.10
2023-04-16T14:09:31.076Z,64.60
2023-04-16T14:12:00.816Z,64.57
2023-04-16T14:14:32.664Z,66.20
2023-04-16T14:17:04.614Z,66.97
2023-04-16T14:19:35.170Z,67.47
2023-04-16T14:22:08.783Z,64.81
2023-04-16T14:24:40.300Z,63.75
2023-04-16T14:27:11.467Z,62.47
2023-04-16T14:29:42.262Z,61.35
2023-04-16T14:32:14.175Z,63.57
2023-04-16T14:34:45.930Z,62.66
2023-04-16T14:37:19.173Z,64.23
2023-04-16T14:39:49.653Z,61.91
2023-04-16T14:42:20.717Z,64.56
2023-04-16T14:44:52.970Z,64.00
2023-04-16T14:47:36.937Z,61.40
2023-04-16T14:50:10.849Z,62.02
2023-04-16T14:52:41.412Z,63.49
2023-04-16T14:55:13.210Z,59.59
2023-04-16T14:57:44.448Z,61.12
2023-04-16T15:00:19.186Z,63.20
2023-04-16T15:02:52.314Z,63.14
2023-04-16T15:05:23.522Z,65.66
2023-04-16T15:07:54.422Z,64.92
2023-04-16T15:10:25.114Z,62.53
2023-04-16T15:12:57.177Z,63.83
2023-04-16T15:15:28.359Z,66.80
2023-04-16T15:18:00.829Z,67.20
2023-04-16T15:20:32.046Z,67.36
2023-04-16T15:23:02.720Z,67.56
2023-04-16T15:25:33.412Z,71.18
2023-04-16T15:28:04.035Z,71.29
2023-04-16T15:30:34.763Z,69.52
2023-04-16T15:33:07.809Z,70.71
2023-04-16T15:35:42.232Z,68.80
2023-04-16T15:38:15.143Z,70.42
2023-04-16T15:40:45.940Z,70.62
2023-04-16T15:43:17.570Z,71.98
2023-04-16T15:45:49.279Z,72.96
2023-04-16T15:48:24.643Z,74.03
2023-04-16T15:50:55.948Z,73.63
2023-04-16T15:53:26.657Z,73.90
2023-04-16T15:55:58.814Z,69.17
2023-04-16T15:58:30.108Z,70.25
2023-04-16T16:01:01.392Z,72.51
2023-04-16T16:03:38.442Z,73.31
2023-04-16T16:06:09.689Z,71.32
2023-04-16T16:08:40.025Z,70.69
2023-04-16T16:11:11.102Z,69.23
2023-04-16T16:13:42.029Z,70.31
2023-04-16T16:16:12.788Z,71.27
2023-04-16T16:18:45.605Z,69.64
2023-04-16T16:21:15.652Z,66.95
2023-04-16T16:23:46.512Z,70.19
2023-04-16T16:26:18.238Z,69.85
2023-04-16T16:28:48.908Z,71.40
2023-04-16T16:31:22.209Z,71.65
2023-04-16T16:33:55.825Z,68.73
2023-04-16T16:36:28.069Z,71.66
2023-04-16T16:38:57.654Z,70.01
2023-04-16T16:41:28.801Z,72.00
2023-04-16T16:44:02.865Z,67.34
2023-04-16T16:46:34.500Z,69.64
2023-04-16T16:49:09.728Z,70.91
2023-04-16T16:51:42.079Z,70.78
2023-04-16T16:54:12.397Z,73.69
2023-04-16T16:56:45.679Z,72.23
2023-04-16T16:59:16.890Z,74.36
2023-04-16T17:01:47.838Z,75.73
2023-04-16T17:04:21.172Z,75.15
2023-04-16T17:06:52.050Z,75.17
2023-04-16T17:09:22.965Z,76.34
2023-04-16T17:11:54.919Z,77.31
2023-04-16T17:14:26.561Z,78.82
2023-04-16T17:16:59.089Z,79.26
2023-04-16T17:19:31.387Z,80.07
2023-04-16T17:22:02.881Z,81.77
2023-04-16T17:24:33.322Z,81.46
2023-04-16T17:27:06.566Z,83.58
2023-04-16T17:29:37.407Z,81.65
2023-04-16T17:32:11.349Z,83.61
2023-04-16T17:34:43.693Z,83.36
2023-04-16T17:37:14.583Z,84.46
2023-04-16T17:39:44.676Z,84.39
2023-04-16T17:42:18.171Z,84.81
2023-04-16T17:44:48.954Z,87.27
2023-04-16T17:47:19.594Z,86.63
2023-04-16T17:49:56.076Z,85.11
2023-04-16T17:52:26.750Z,85.63
2023-04-16T17:55:01.510Z,87.70
2023-04-16T17:57:32.853Z,88.38
2023-04-16T18:00:03.268Z,89.84
2023-04-16T18:02:35.316Z,88.00
2023-04-16T18:05:09.530Z,88.44
2023-04-16T18:07:41.293Z,90.59
2023-04-16T18:10:13.136Z,90.83
2023-04-16T18:12:44.960Z,90.61
2023-04-16T18:15:17.715Z,89.42
2023-04-16T18:17:49.163Z,89.13
2023-04-16T18:20:21.909Z,87.28
2023-04-16T18:22:53.911Z,90.30
2023-04-16T18:25:33.547Z,88.97
2023-04-16T18:28:06.491Z,90.09
2023-04-16T18:30:40.518Z,90.12
2023-04-16T18:33:43.551Z,90.01
2023-04-16T18:36:05.947Z,89.64
2023-04-16T18:38:46.321Z,91.17
2023-04-16T18:41:35.141Z,91.35
2023-04-16T18:44:06.231Z,94.66
2023-04-16T18:46:36.738Z,93.92
2023-04-16T18:49:09.839Z,92.55
2023-04-16T18:51:44.677Z,94.10
2023-04-16T18:54:14.871Z,93.04
2023-04-16T18:56:44.675Z,91.65
2023-04-16T18:59:16.923Z,90.46
2023-04-16T19:01:46.961Z,90.77
2023-04-16T19:04:18.072Z,93.08
2023-04-16T19:06:49.750Z,91.92
2023-04-16T19:09:20.102Z,92.18
2023-04-16T19:11:51.460Z,92.39
2023-04-16T19:14:21.978Z,94.12
2023-04-16T19:16:55.769Z,93.42
2023-04-16T19:19:26.145Z,91.51
2023-04-16T19:21:56.966Z,92.47
2023-04-16T19:24:27.516Z,93.14
2023-04-16T19:26:58.247Z,93.30
2023-04-16T19:29:28.565Z,91.66
2023-04-16T19:31:58.713Z,92.43
2023-04-16T19:34:28.860Z,92.37
2023-04-16T19:37:01.727Z,92.89
2023-04-16T19:39:32.054Z,92.90
2023-04-16T19:42:03.205Z,91.82
2023-04-16T19:44:33.509Z,91.09
2023-04-16T19:47:03.854Z,92.32
2023-04-16T19:49:34.722Z,91.24
2023-04-16T19:52:06.589Z,92.34
2023-04-16T19:54:37.768Z,93.96
2023-04-16T19:57:07.566Z,93.85
2023-04-16T19:59:38.543Z,92.14
2023-04-16T20:02:09.432Z,92.42
2023-04-16T20:04:39.830Z,92.44
2023-04-16T20:07:12.071Z,94.77
2023-04-16T20:09:42.098Z,95.35
2023-04-16T20:12:15.222Z,96.63
2023-04-16T20:14:45.399Z,94.30
2023-04-16T20:17:19.864Z,94.12
2023-04-16T20:19:51.475Z,94.75
2023-04-16T20:22:23.182Z,94.47
2023-04-16T20:24:55.246Z,97.07
2023-04-16T20:27:26.006Z,94.97
2023-04-16T20:29:57.328Z,96.71
2023-04-16T20:32:28.735Z,96.72
2023-04-16T20:34:59.823Z,95.63
2023-04-16T20:37:33.220Z,95.50
2023-04-16T20:40:04.668Z,98.10
2023-04-16T20:42:36.025Z,98.14
2023-04-16T20:45:06.845Z,96.55
2023-04-16T20:47:37.364Z,96.27
2023-04-16T20:50:08.637Z,95.13
2023-04-16T20:52:40.388Z,95.40
2023-04-16T20:55:11.574Z,95.24
2023-04-16T20:57:42.847Z,95.75
2023-04-16T21:00:17.151Z,94.87
2023-04-16T21:02:47.893Z,95.46
2023-04-16T21:05:22.099Z,95.34
2023-04-16T21:07:55.917Z,95.56
2023-04-16T21:10:27.045Z,94.45
2023-04-16T21:12:57.071Z,95.42
2023-04-16T21:15:27.196Z,94.50
2023-04-16T21:17:57.145Z,93.87
2023-04-16T21:20:28.811Z,93.91
2023-04-16T21:23:05.584Z,95.76
2023-04-16T21:25:36.188Z,96.06
2023-04-16T21:28:07.814Z,96.31
2023-04-16T21:30:38.922Z,94.44
2023-04-16T21:33:09.490Z,94.12
2023-04-16T21:35:39.479Z,97.20
2023-04-16T21:38:11.848Z,95.00
2023-04-16T21:40:41.953Z,95.27
2023-04-16T21:43:12.679Z,95.15
2023-04-16T21:45:44.058Z,95.99
2023-04-16T21:48:14.228Z,95.63
2023-04-16T21:50:47.065Z,97.39
2023-04-16T21:53:18.180Z,96.81
2023-04-16T21:55:47.923Z,97.29
2023-04-16T21:58:18.062Z,96.16
2023-04-16T22:00:49.065Z,94.48
2023-04-16T22:03:20.470Z,93.84
2023-04-16T22:05:50.602Z,91.87
2023-04-16T22:08:24.834Z,93.84
2023-04-16T22:10:58.081Z,92.88
2023-04-16T22:13:28.392Z,93.13
2023-04-16T22:16:01.739Z,92.88
2023-04-16T22:18:34.451Z,93.07
2023-04-16T22:21:04.448Z,93.27
2023-04-16T22:23:35.424Z,93.53
2023-04-16T22:26:05.324Z,93.80
2023-04-16T22:28:35.264Z,94.08
2023-04-16T22:31:05.208Z,93.66
2023-04-16T22:33:35.438Z,94.85
2023-04-16T22:36:08.887Z,96.25
2023-04-16T22:38:41.213Z,96.93
2023-04-16T22:41:11.633Z,100.00
2023-04-16T22:43:41.364Z,99.45
2023-04-16T22:46:11.620Z,100.00
2023-04-16T22:48:44.093Z,100.00
2023-04-16T22:51:14.117Z,100.00
2023-04-16T22:53:46.928Z,100.00
2023-04-16T22:56:18.188Z,100.00
2023-04-16T22:58:49.439Z,100.00
2023-04-16T23:01:19.488Z,100.00
2023-04-16T23:03:49.776Z,100.00
2023-04-16T23:06:20.213Z,100.00
2023-04-16T23:08:55.989Z,100.00
2023-04-16T23:11:26.448Z,100.00
2023-04-16T23:13:56.356Z,100.00
2023-04-16T23:16:27.370Z,100.00
2023-04-16T23:18:57.918Z,100.00
2023-04-16T23:21:28.428Z,100.00
2023-04-16T23:24:00.341Z,100.00
2023-04-16T23:26:30.118Z,100.00
2023-04-16T23:29:01.208Z,100.00
2023-04-16T23:31:30.825Z,100.00
2023-04-16T23:34:02.076Z,100.00
2023-04-16T23:36:32.699Z,100.00
2023-04-16T23:39:05.037Z,100.00
2023-04-16T23:41:35.086Z,100.00
2023-04-16T23:44:05.269Z,99.47
2023-04-16T23:46:35.496Z,97.96
2023-04-16T23:49:06.496Z,98.05
2023-04-16T23:51:36.237Z,93.91
2023-04-16T23:54:08.149Z,92.93
2023-04-16T23:56:37.952Z,91.10
2023-04-16T23:59:11.297Z,91.59
